sensor_id;sensor_type;location;lat;lon;timestamp;temperature;humidity
36002;DHT22;22070;50.922;5.430;2022-09-19T00:00:43;9.20;99.90
36002;DHT22;22070;50.922;5.430;2022-09-19T00:03:09;9.30;99.90
36002;DHT22;22070;50.922;5.430;2022-09-19T00:05:40;9.20;99.90
36002;DHT22;22070;50.922;5.430;2022-09-19T00:08:07;9.10;99.90
36002;DHT22;22070;50.922;5.430;2022-09-19T00:10:40;9.10;99.90
36002;DHT22;22070;50.922;5.430;2022-09-19T00:13:07;9.10;99.90
36002;DHT22;22070;50.922;5.430;2022-09-19T00:15:46;9.10;99.90
36002;DHT22;22070;50.922;5.430;2022-09-19T00:18:12;9.10;99.90
36002;DHT22;22070;50.922;5.430;2022-09-19T00:20:40;9.10;99.90
36002;DHT22;22070;50.922;5.430;2022-09-19T00:23:06;9.10;99.90
36002;DHT22;22070;50.922;5.430;2022-09-19T00:26:01;9.10;99.90
36002;DHT22;22070;50.922;5.430;2022-09-19T00:28:28;9.10;99.90
36002;DHT22;22070;50.922;5.430;2022-09-19T00:30:54;9.10;99.90
36002;DHT22;22070;50.922;5.430;2022-09-19T00:33:20;9.00;99.90
36002;DHT22;22070;50.922;5.430;2022-09-19T00:35:47;9.00;99.90
36002;DHT22;22070;50.922;5.430;2022-09-19T00:38:24;9.00;99.90
36002;DHT22;22070;50.922;5.430;2022-09-19T00:40:50;9.00;99.90
36002;DHT22;22070;50.922;5.430;2022-09-19T00:43:18;9.00;99.90
36002;DHT22;22070;50.922;5.430;2022-09-19T00:45:45;9.00;99.90
36002;DHT22;22070;50.922;5.430;2022-09-19T00:48:13;9.00;99.90
36002;DHT22;22070;50.922;5.430;2022-09-19T00:50:40;9.00;99.90
36002;DHT22;22070;50.922;5.430;2022-09-19T00:53:12;8.90;99.90
36002;DHT22;22070;50.922;5.430;2022-09-19T00:55:40;8.90;99.90
36002;DHT22;22070;50.922;5.430;2022-09-19T00:58:29;8.90;99.90
36002;DHT22;22070;50.922;5.430;2022-09-19T01:00:57;8.90;99.90
36002;DHT22;22070;50.922;5.430;2022-09-19T01:03:23;8.90;99.90
36002;DHT22;22070;50.922;5.430;2022-09-19T01:08:44;8.80;99.90
36002;DHT22;22070;50.922;5.430;2022-09-19T01:11:38;8.90;99.90
36002;DHT22;22070;50.922;5.430;2022-09-19T01:17:28;8.90;99.90
36002;DHT22;22070;50.922;5.430;2022-09-19T01:20:06;8.80;99.90
36002;DHT22;22070;50.922;5.430;2022-09-19T01:28:11;8.80;99.90
36002;DHT22;22070;50.922;5.430;2022-09-19T01:30:46;8.80;99.90
36002;DHT22;22070;50.922;5.430;2022-09-19T01:33:14;8.70;99.90
36002;DHT22;22070;50.922;5.430;2022-09-19T01:35:47;8.70;99.90
36002;DHT22;22070;50.922;5.430;2022-09-19T01:38:23;8.70;99.90
36002;DHT22;22070;50.922;5.430;2022-09-19T01:40:51;8.60;99.90
36002;DHT22;22070;50.922;5.430;2022-09-19T01:43:18;8.60;99.90
36002;DHT22;22070;50.922;5.430;2022-09-19T01:45:45;8.60;99.90
36002;DHT22;22070;50.922;5.430;2022-09-19T01:48:43;8.60;99.90
36002;DHT22;22070;50.922;5.430;2022-09-19T01:51:24;8.60;99.90
36002;DHT22;22070;50.922;5.430;2022-09-19T02:00:11;8.50;99.90
36002;DHT22;22070;50.922;5.430;2022-09-19T02:08:02;8.40;99.90
36002;DHT22;22070;50.922;5.430;2022-09-19T02:10:44;8.40;99.90
36002;DHT22;22070;50.922;5.430;2022-09-19T02:13:13;8.40;99.90
36002;DHT22;22070;50.922;5.430;2022-09-19T02:15:45;8.50;99.90
36002;DHT22;22070;50.922;5.430;2022-09-19T02:21:13;8.40;99.90
36002;DHT22;22070;50.922;5.430;2022-09-19T02:23:45;8.40;99.90
36002;DHT22;22070;50.922;5.430;2022-09-19T02:26:15;8.40;99.90
36002;DHT22;22070;50.922;5.430;2022-09-19T02:28:46;8.40;99.90
36002;DHT22;22070;50.922;5.430;2022-09-19T02:31:14;8.40;99.90
36002;DHT22;22070;50.922;5.430;2022-09-19T02:33:41;8.40;99.90
36002;DHT22;22070;50.922;5.430;2022-09-19T02:36:30;8.30;99.90
36002;DHT22;22070;50.922;5.430;2022-09-19T02:41:45;8.30;99.90
36002;DHT22;22070;50.922;5.430;2022-09-19T02:44:27;8.30;99.90
36002;DHT22;22070;50.922;5.430;2022-09-19T02:46:59;8.20;99.90
36002;DHT22;22070;50.922;5.430;2022-09-19T02:49:49;8.20;99.90
36002;DHT22;22070;50.922;5.430;2022-09-19T02:52:18;8.20;99.90
36002;DHT22;22070;50.922;5.430;2022-09-19T02:54:50;8.20;99.90
36002;DHT22;22070;50.922;5.430;2022-09-19T02:57:20;8.20;99.90
36002;DHT22;22070;50.922;5.430;2022-09-19T02:59:49;8.20;99.90
36002;DHT22;22070;50.922;5.430;2022-09-19T03:02:28;8.20;99.90
36002;DHT22;22070;50.922;5.430;2022-09-19T03:05:11;8.20;99.90
36002;DHT22;22070;50.922;5.430;2022-09-19T03:07:45;8.20;99.90
36002;DHT22;22070;50.922;5.430;2022-09-19T03:10:16;8.20;99.90
36002;DHT22;22070;50.922;5.430;2022-09-19T03:12:47;8.20;99.90
36002;DHT22;22070;50.922;5.430;2022-09-19T03:15:20;8.20;99.90
36002;DHT22;22070;50.922;5.430;2022-09-19T03:17:48;8.10;99.90
36002;DHT22;22070;50.922;5.430;2022-09-19T03:20:16;8.20;99.90
36002;DHT22;22070;50.922;5.430;2022-09-19T03:22:42;8.20;99.90
36002;DHT22;22070;50.922;5.430;2022-09-19T03:25:11;8.30;99.90
36002;DHT22;22070;50.922;5.430;2022-09-19T03:27:39;8.20;99.90
36002;DHT22;22070;50.922;5.430;2022-09-19T03:30:07;8.10;99.90
36002;DHT22;22070;50.922;5.430;2022-09-19T03:32:34;8.20;99.90
36002;DHT22;22070;50.922;5.430;2022-09-19T03:35:00;8.20;99.90
36002;DHT22;22070;50.922;5.430;2022-09-19T03:37:29;8.00;99.90
36002;DHT22;22070;50.922;5.430;2022-09-19T03:39:54;7.90;99.90
36002;DHT22;22070;50.922;5.430;2022-09-19T03:42:20;7.80;99.90
36002;DHT22;22070;50.922;5.430;2022-09-19T03:44:46;7.70;99.90
36002;DHT22;22070;50.922;5.430;2022-09-19T03:47:12;7.60;99.90
36002;DHT22;22070;50.922;5.430;2022-09-19T03:49:37;7.80;99.90
36002;DHT22;22070;50.922;5.430;2022-09-19T03:52:03;7.70;99.90
36002;DHT22;22070;50.922;5.430;2022-09-19T03:54:29;7.70;99.90
36002;DHT22;22070;50.922;5.430;2022-09-19T03:56:55;7.70;99.90
36002;DHT22;22070;50.922;5.430;2022-09-19T03:59:20;7.60;99.90
36002;DHT22;22070;50.922;5.430;2022-09-19T04:01:46;7.50;99.90
36002;DHT22;22070;50.922;5.430;2022-09-19T04:04:12;7.30;99.90
36002;DHT22;22070;50.922;5.430;2022-09-19T04:06:38;7.30;99.90
36002;DHT22;22070;50.922;5.430;2022-09-19T04:09:06;7.30;99.90
36002;DHT22;22070;50.922;5.430;2022-09-19T04:11:31;7.30;99.90
36002;DHT22;22070;50.922;5.430;2022-09-19T04:13:57;7.30;99.90
36002;DHT22;22070;50.922;5.430;2022-09-19T04:16:23;7.50;99.90
36002;DHT22;22070;50.922;5.430;2022-09-19T04:18:52;7.40;99.90
36002;DHT22;22070;50.922;5.430;2022-09-19T04:21:18;7.20;99.90
36002;DHT22;22070;50.922;5.430;2022-09-19T04:23:44;7.20;99.90
36002;DHT22;22070;50.922;5.430;2022-09-19T04:26:13;7.30;99.90
36002;DHT22;22070;50.922;5.430;2022-09-19T04:28:40;7.20;99.90
36002;DHT22;22070;50.922;5.430;2022-09-19T04:31:07;7.10;99.90
36002;DHT22;22070;50.922;5.430;2022-09-19T04:33:35;7.00;99.90
36002;DHT22;22070;50.922;5.430;2022-09-19T04:36:02;6.90;99.90
36002;DHT22;22070;50.922;5.430;2022-09-19T04:38:28;7.00;99.90
36002;DHT22;22070;50.922;5.430;2022-09-19T04:40:56;7.00;99.90
36002;DHT22;22070;50.922;5.430;2022-09-19T04:43:24;6.90;99.90
36002;DHT22;22070;50.922;5.430;2022-09-19T04:45:55;6.90;99.90
36002;DHT22;22070;50.922;5.430;2022-09-19T04:48:22;6.90;99.90
36002;DHT22;22070;50.922;5.430;2022-09-19T04:50:50;6.80;99.90
36002;DHT22;22070;50.922;5.430;2022-09-19T04:53:21;6.80;99.90
36002;DHT22;22070;50.922;5.430;2022-09-19T04:55:53;6.80;99.90
36002;DHT22;22070;50.922;5.430;2022-09-19T04:58:20;6.90;99.90
36002;DHT22;22070;50.922;5.430;2022-09-19T05:00:53;6.80;99.90
36002;DHT22;22070;50.922;5.430;2022-09-19T05:03:19;6.60;99.90
36002;DHT22;22070;50.922;5.430;2022-09-19T05:05:47;6.70;99.90
36002;DHT22;22070;50.922;5.430;2022-09-19T05:08:25;6.60;99.90
36002;DHT22;22070;50.922;5.430;2022-09-19T05:11:02;6.60;99.90
36002;DHT22;22070;50.922;5.430;2022-09-19T05:13:31;6.60;99.90
36002;DHT22;22070;50.922;5.430;2022-09-19T05:15:58;6.70;99.90
36002;DHT22;22070;50.922;5.430;2022-09-19T05:18:25;6.50;99.90
36002;DHT22;22070;50.922;5.430;2022-09-19T05:20:52;6.50;99.90
36002;DHT22;22070;50.922;5.430;2022-09-19T05:23:19;6.50;99.90
36002;DHT22;22070;50.922;5.430;2022-09-19T05:25:44;6.50;99.90
36002;DHT22;22070;50.922;5.430;2022-09-19T05:28:11;6.80;99.90
36002;DHT22;22070;50.922;5.430;2022-09-19T05:30:39;6.90;99.90
36002;DHT22;22070;50.922;5.430;2022-09-19T05:33:10;6.70;99.90
36002;DHT22;22070;50.922;5.430;2022-09-19T05:35:36;6.60;99.90
36002;DHT22;22070;50.922;5.430;2022-09-19T05:38:03;6.50;99.90
36002;DHT22;22070;50.922;5.430;2022-09-19T05:40:29;6.40;99.90
36002;DHT22;22070;50.922;5.430;2022-09-19T05:42:55;6.40;99.90
36002;DHT22;22070;50.922;5.430;2022-09-19T05:45:25;6.30;99.90
36002;DHT22;22070;50.922;5.430;2022-09-19T05:47:51;6.30;99.90
36002;DHT22;22070;50.922;5.430;2022-09-19T05:50:17;6.30;99.90
36002;DHT22;22070;50.922;5.430;2022-09-19T05:52:42;6.50;99.90
36002;DHT22;22070;50.922;5.430;2022-09-19T05:55:28;6.60;99.90
36002;DHT22;22070;50.922;5.430;2022-09-19T05:57:58;6.60;99.90
36002;DHT22;22070;50.922;5.430;2022-09-19T06:00:26;6.60;99.90
36002;DHT22;22070;50.922;5.430;2022-09-19T06:02:57;6.60;99.90
36002;DHT22;22070;50.922;5.430;2022-09-19T06:05:25;6.50;99.90
36002;DHT22;22070;50.922;5.430;2022-09-19T06:07:52;6.60;99.90
36002;DHT22;22070;50.922;5.430;2022-09-19T06:10:20;6.70;99.90
36002;DHT22;22070;50.922;5.430;2022-09-19T06:12:45;6.90;99.90
36002;DHT22;22070;50.922;5.430;2022-09-19T06:15:12;7.00;99.90
36002;DHT22;22070;50.922;5.430;2022-09-19T06:17:38;7.30;99.90
36002;DHT22;22070;50.922;5.430;2022-09-19T06:20:04;7.40;99.90
36002;DHT22;22070;50.922;5.430;2022-09-19T06:22:30;7.60;99.90
36002;DHT22;22070;50.922;5.430;2022-09-19T06:24:56;7.80;99.90
36002;DHT22;22070;50.922;5.430;2022-09-19T06:27:22;7.90;99.90
36002;DHT22;22070;50.922;5.430;2022-09-19T06:29:47;8.00;99.90
36002;DHT22;22070;50.922;5.430;2022-09-19T06:32:13;8.20;99.90
36002;DHT22;22070;50.922;5.430;2022-09-19T06:34:39;8.30;99.90
36002;DHT22;22070;50.922;5.430;2022-09-19T06:37:05;8.40;99.90
36002;DHT22;22070;50.922;5.430;2022-09-19T06:39:30;8.50;99.90
36002;DHT22;22070;50.922;5.430;2022-09-19T06:41:56;8.70;99.90
36002;DHT22;22070;50.922;5.430;2022-09-19T06:44:22;8.80;99.90
36002;DHT22;22070;50.922;5.430;2022-09-19T06:46:48;8.90;99.90
36002;DHT22;22070;50.922;5.430;2022-09-19T06:49:14;9.10;99.90
36002;DHT22;22070;50.922;5.430;2022-09-19T06:51:40;9.20;99.90
36002;DHT22;22070;50.922;5.430;2022-09-19T06:54:05;9.30;99.90
36002;DHT22;22070;50.922;5.430;2022-09-19T06:56:31;9.40;99.90
36002;DHT22;22070;50.922;5.430;2022-09-19T06:58:57;9.60;99.90
36002;DHT22;22070;50.922;5.430;2022-09-19T07:01:22;9.80;99.90
36002;DHT22;22070;50.922;5.430;2022-09-19T07:03:48;10.00;99.90
36002;DHT22;22070;50.922;5.430;2022-09-19T07:06:14;9.90;99.90
36002;DHT22;22070;50.922;5.430;2022-09-19T07:08:40;10.00;99.90
36002;DHT22;22070;50.922;5.430;2022-09-19T07:11:05;10.20;99.90
36002;DHT22;22070;50.922;5.430;2022-09-19T07:13:31;10.30;99.90
36002;DHT22;22070;50.922;5.430;2022-09-19T07:16:00;10.40;99.90
36002;DHT22;22070;50.922;5.430;2022-09-19T07:18:30;10.50;99.90
36002;DHT22;22070;50.922;5.430;2022-09-19T07:20:59;10.70;99.90
36002;DHT22;22070;50.922;5.430;2022-09-19T07:23:25;10.90;99.90
36002;DHT22;22070;50.922;5.430;2022-09-19T07:25:53;10.60;99.90
36002;DHT22;22070;50.922;5.430;2022-09-19T07:28:21;10.70;99.90
36002;DHT22;22070;50.922;5.430;2022-09-19T07:30:47;10.50;99.90
36002;DHT22;22070;50.922;5.430;2022-09-19T07:33:15;10.50;99.90
36002;DHT22;22070;50.922;5.430;2022-09-19T07:35:42;10.30;99.90
36002;DHT22;22070;50.922;5.430;2022-09-19T07:38:16;10.20;99.90
36002;DHT22;22070;50.922;5.430;2022-09-19T07:40:42;10.20;99.90
36002;DHT22;22070;50.922;5.430;2022-09-19T07:43:09;10.20;99.90
36002;DHT22;22070;50.922;5.430;2022-09-19T07:45:42;10.20;99.90
36002;DHT22;22070;50.922;5.430;2022-09-19T07:48:08;10.60;99.90
36002;DHT22;22070;50.922;5.430;2022-09-19T07:50:34;10.70;99.90
36002;DHT22;22070;50.922;5.430;2022-09-19T07:53:05;10.80;99.90
36002;DHT22;22070;50.922;5.430;2022-09-19T07:55:32;10.80;99.90
36002;DHT22;22070;50.922;5.430;2022-09-19T07:57:59;11.10;99.90
36002;DHT22;22070;50.922;5.430;2022-09-19T08:00:27;11.40;99.90
36002;DHT22;22070;50.922;5.430;2022-09-19T08:03:05;11.70;99.90
36002;DHT22;22070;50.922;5.430;2022-09-19T08:05:37;12.10;99.90
36002;DHT22;22070;50.922;5.430;2022-09-19T08:08:04;12.00;99.90
36002;DHT22;22070;50.922;5.430;2022-09-19T08:10:30;12.10;99.90
36002;DHT22;22070;50.922;5.430;2022-09-19T08:12:59;12.10;99.90
36002;DHT22;22070;50.922;5.430;2022-09-19T08:15:26;12.10;99.90
36002;DHT22;22070;50.922;5.430;2022-09-19T08:17:59;12.30;99.90
36002;DHT22;22070;50.922;5.430;2022-09-19T08:20:27;12.30;99.90
36002;DHT22;22070;50.922;5.430;2022-09-19T08:23:04;12.50;99.90
36002;DHT22;22070;50.922;5.430;2022-09-19T08:25:33;12.70;99.90
36002;DHT22;22070;50.922;5.430;2022-09-19T08:27:59;13.00;99.90
36002;DHT22;22070;50.922;5.430;2022-09-19T08:30:26;13.10;99.90
36002;DHT22;22070;50.922;5.430;2022-09-19T08:32:55;13.30;99.90
36002;DHT22;22070;50.922;5.430;2022-09-19T08:35:23;13.20;99.90
36002;DHT22;22070;50.922;5.430;2022-09-19T08:37:53;13.20;99.90
36002;DHT22;22070;50.922;5.430;2022-09-19T08:43:11;13.40;99.90
36002;DHT22;22070;50.922;5.430;2022-09-19T08:48:27;13.40;99.90
36002;DHT22;22070;50.922;5.430;2022-09-19T08:51:08;13.60;99.90
36002;DHT22;22070;50.922;5.430;2022-09-19T08:53:41;13.40;99.90
36002;DHT22;22070;50.922;5.430;2022-09-19T08:56:08;13.40;99.90
36002;DHT22;22070;50.922;5.430;2022-09-19T08:58:42;13.50;99.90
36002;DHT22;22070;50.922;5.430;2022-09-19T09:01:10;13.40;99.90
36002;DHT22;22070;50.922;5.430;2022-09-19T09:03:45;13.80;99.90
36002;DHT22;22070;50.922;5.430;2022-09-19T09:17:48;13.80;99.90
36002;DHT22;22070;50.922;5.430;2022-09-19T09:22:46;13.90;99.90
36002;DHT22;22070;50.922;5.430;2022-09-19T09:25:18;14.00;99.90
36002;DHT22;22070;50.922;5.430;2022-09-19T09:28:00;14.10;99.90
36002;DHT22;22070;50.922;5.430;2022-09-19T09:30:30;14.10;99.90
36002;DHT22;22070;50.922;5.430;2022-09-19T09:33:49;14.20;99.90
36002;DHT22;22070;50.922;5.430;2022-09-19T09:38:36;14.60;99.90
36002;DHT22;22070;50.922;5.430;2022-09-19T09:47:00;14.40;99.90
36002;DHT22;22070;50.922;5.430;2022-09-19T09:49:29;14.70;99.90
36002;DHT22;22070;50.922;5.430;2022-09-19T09:52:26;14.90;99.90
36002;DHT22;22070;50.922;5.430;2022-09-19T09:55:13;15.00;99.90
36002;DHT22;22070;50.922;5.430;2022-09-19T10:00:52;15.10;99.90
36002;DHT22;22070;50.922;5.430;2022-09-19T10:06:52;15.70;99.90
36002;DHT22;22070;50.922;5.430;2022-09-19T10:09:30;15.60;99.90
36002;DHT22;22070;50.922;5.430;2022-09-19T10:12:04;15.40;99.90
36002;DHT22;22070;50.922;5.430;2022-09-19T10:14:36;15.40;99.90
36002;DHT22;22070;50.922;5.430;2022-09-19T10:17:04;15.80;99.90
36002;DHT22;22070;50.922;5.430;2022-09-19T10:19:45;15.90;99.90
36002;DHT22;22070;50.922;5.430;2022-09-19T10:22:13;16.30;99.90
36002;DHT22;22070;50.922;5.430;2022-09-19T10:24:52;16.70;99.90
36002;DHT22;22070;50.922;5.430;2022-09-19T10:29:58;16.50;99.90
36002;DHT22;22070;50.922;5.430;2022-09-19T10:32:31;16.80;99.90
36002;DHT22;22070;50.922;5.430;2022-09-19T10:35:00;16.60;99.90
36002;DHT22;22070;50.922;5.430;2022-09-19T10:37:25;16.50;99.90
36002;DHT22;22070;50.922;5.430;2022-09-19T10:40:00;17.20;99.90
36002;DHT22;22070;50.922;5.430;2022-09-19T10:42:33;17.50;99.90
36002;DHT22;22070;50.922;5.430;2022-09-19T10:47:41;17.40;99.90
36002;DHT22;22070;50.922;5.430;2022-09-19T10:50:13;17.40;99.90
36002;DHT22;22070;50.922;5.430;2022-09-19T10:52:40;17.50;99.90
36002;DHT22;22070;50.922;5.430;2022-09-19T10:55:18;17.40;99.90
36002;DHT22;22070;50.922;5.430;2022-09-19T10:58:36;17.70;99.90
36002;DHT22;22070;50.922;5.430;2022-09-19T11:00:52;17.60;99.90
36002;DHT22;22070;50.922;5.430;2022-09-19T11:03:26;17.40;99.90
36002;DHT22;22070;50.922;5.430;2022-09-19T11:06:28;17.30;99.90
36002;DHT22;22070;50.922;5.430;2022-09-19T11:08:55;18.00;99.90
36002;DHT22;22070;50.922;5.430;2022-09-19T11:11:31;18.10;99.90
36002;DHT22;22070;50.922;5.430;2022-09-19T11:14:49;17.90;99.90
36002;DHT22;22070;50.922;5.430;2022-09-19T11:26:02;18.10;99.90
36002;DHT22;22070;50.922;5.430;2022-09-19T11:31:59;18.70;99.90
36002;DHT22;22070;50.922;5.430;2022-09-19T12:05:13;19.30;99.90
36002;DHT22;22070;50.922;5.430;2022-09-19T12:07:51;18.10;99.90
36002;DHT22;22070;50.922;5.430;2022-09-19T12:10:39;17.40;99.90
36002;DHT22;22070;50.922;5.430;2022-09-19T12:13:18;16.80;99.90
36002;DHT22;22070;50.922;5.430;2022-09-19T12:16:00;16.50;99.90
36002;DHT22;22070;50.922;5.430;2022-09-19T12:21:41;16.40;99.90
36002;DHT22;22070;50.922;5.430;2022-09-19T12:24:15;16.40;99.90
36002;DHT22;22070;50.922;5.430;2022-09-19T12:27:09;16.50;99.90
36002;DHT22;22070;50.922;5.430;2022-09-19T12:37:24;17.10;99.90
36002;DHT22;22070;50.922;5.430;2022-09-19T12:40:04;17.30;99.90
36002;DHT22;22070;50.922;5.430;2022-09-19T12:42:47;17.50;99.90
36002;DHT22;22070;50.922;5.430;2022-09-19T12:45:16;17.30;99.90
36002;DHT22;22070;50.922;5.430;2022-09-19T12:48:13;17.50;99.90
36002;DHT22;22070;50.922;5.430;2022-09-19T12:50:44;17.50;99.90
36002;DHT22;22070;50.922;5.430;2022-09-19T12:53:35;17.90;99.90
36002;DHT22;22070;50.922;5.430;2022-09-19T12:56:14;18.40;99.90
36002;DHT22;22070;50.922;5.430;2022-09-19T13:01:48;19.20;99.90
36002;DHT22;22070;50.922;5.430;2022-09-19T13:07:09;19.30;99.90
36002;DHT22;22070;50.922;5.430;2022-09-19T13:15:18;19.60;99.90
36002;DHT22;22070;50.922;5.430;2022-09-19T13:17:48;20.20;99.90
36002;DHT22;22070;50.922;5.430;2022-09-19T13:20:37;20.10;99.90
36002;DHT22;22070;50.922;5.430;2022-09-19T13:23:24;19.10;99.90
36002;DHT22;22070;50.922;5.430;2022-09-19T13:26:33;19.00;99.90
36002;DHT22;22070;50.922;5.430;2022-09-19T13:43:17;19.20;99.90
36002;DHT22;22070;50.922;5.430;2022-09-19T13:45:57;19.00;99.90
36002;DHT22;22070;50.922;5.430;2022-09-19T13:48:47;18.70;99.90
36002;DHT22;22070;50.922;5.430;2022-09-19T13:51:44;18.90;99.90
36002;DHT22;22070;50.922;5.430;2022-09-19T13:57:27;18.10;99.90
36002;DHT22;22070;50.922;5.430;2022-09-19T13:59:59;17.60;99.90
36002;DHT22;22070;50.922;5.430;2022-09-19T14:02:33;17.30;99.90
36002;DHT22;22070;50.922;5.430;2022-09-19T14:05:04;16.30;99.90
36002;DHT22;22070;50.922;5.430;2022-09-19T14:23:14;16.10;99.90
36002;DHT22;22070;50.922;5.430;2022-09-19T14:25:43;16.30;99.90
36002;DHT22;22070;50.922;5.430;2022-09-19T14:31:22;17.30;99.90
36002;DHT22;22070;50.922;5.430;2022-09-19T14:34:18;17.90;99.90
36002;DHT22;22070;50.922;5.430;2022-09-19T14:39:47;18.80;99.90
36002;DHT22;22070;50.922;5.430;2022-09-19T14:47:56;18.40;99.90
36002;DHT22;22070;50.922;5.430;2022-09-19T14:50:26;18.00;99.90
36002;DHT22;22070;50.922;5.430;2022-09-19T14:52:56;17.90;99.90
36002;DHT22;22070;50.922;5.430;2022-09-19T14:55:35;17.50;99.90
36002;DHT22;22070;50.922;5.430;2022-09-19T14:58:01;17.30;99.90
36002;DHT22;22070;50.922;5.430;2022-09-19T15:00:29;17.50;99.90
36002;DHT22;22070;50.922;5.430;2022-09-19T15:02:57;17.70;99.90
36002;DHT22;22070;50.922;5.430;2022-09-19T15:05:30;17.70;99.90
36002;DHT22;22070;50.922;5.430;2022-09-19T15:08:19;18.00;99.90
36002;DHT22;22070;50.922;5.430;2022-09-19T15:10:57;18.60;99.90
36002;DHT22;22070;50.922;5.430;2022-09-19T15:13:25;19.00;99.90
36002;DHT22;22070;50.922;5.430;2022-09-19T15:15:54;19.20;99.90
36002;DHT22;22070;50.922;5.430;2022-09-19T15:18:28;19.20;99.90
36002;DHT22;22070;50.922;5.430;2022-09-19T15:20:57;19.40;99.90
36002;DHT22;22070;50.922;5.430;2022-09-19T15:23:26;19.40;99.90
36002;DHT22;22070;50.922;5.430;2022-09-19T15:25:58;19.50;99.90
36002;DHT22;22070;50.922;5.430;2022-09-19T15:28:33;19.60;99.90
36002;DHT22;22070;50.922;5.430;2022-09-19T15:31:36;19.90;99.90
36002;DHT22;22070;50.922;5.430;2022-09-19T15:34:16;19.50;99.90
36002;DHT22;22070;50.922;5.430;2022-09-19T15:36:43;19.50;99.90
36002;DHT22;22070;50.922;5.430;2022-09-19T15:39:11;19.20;99.90
36002;DHT22;22070;50.922;5.430;2022-09-19T15:41:38;19.30;99.90
36002;DHT22;22070;50.922;5.430;2022-09-19T15:44:04;19.40;99.90
36002;DHT22;22070;50.922;5.430;2022-09-19T15:46:40;19.20;99.90
36002;DHT22;22070;50.922;5.430;2022-09-19T15:49:26;19.20;99.90
36002;DHT22;22070;50.922;5.430;2022-09-19T15:51:58;19.00;99.90
36002;DHT22;22070;50.922;5.430;2022-09-19T15:54:27;19.00;99.90
36002;DHT22;22070;50.922;5.430;2022-09-19T15:56:58;19.00;99.90
36002;DHT22;22070;50.922;5.430;2022-09-19T15:59:35;19.50;99.90
36002;DHT22;22070;50.922;5.430;2022-09-19T16:02:01;19.60;99.90
36002;DHT22;22070;50.922;5.430;2022-09-19T16:04:35;19.50;99.90
36002;DHT22;22070;50.922;5.430;2022-09-19T16:07:01;19.50;99.90
36002;DHT22;22070;50.922;5.430;2022-09-19T16:10:08;19.30;99.90
36002;DHT22;22070;50.922;5.430;2022-09-19T16:12:43;18.80;99.90
36002;DHT22;22070;50.922;5.430;2022-09-19T16:23:20;17.70;99.90
36002;DHT22;22070;50.922;5.430;2022-09-19T16:33:56;16.10;99.90
36002;DHT22;22070;50.922;5.430;2022-09-19T16:36:24;15.90;99.90
36002;DHT22;22070;50.922;5.430;2022-09-19T16:44:41;15.70;99.90
36002;DHT22;22070;50.922;5.430;2022-09-19T16:47:24;15.50;99.90
36002;DHT22;22070;50.922;5.430;2022-09-19T16:49:51;15.50;99.90
36002;DHT22;22070;50.922;5.430;2022-09-19T16:52:22;15.40;99.90
36002;DHT22;22070;50.922;5.430;2022-09-19T16:54:48;15.30;99.90
36002;DHT22;22070;50.922;5.430;2022-09-19T16:57:18;15.30;99.90
36002;DHT22;22070;50.922;5.430;2022-09-19T16:59:49;15.10;99.90
36002;DHT22;22070;50.922;5.430;2022-09-19T17:02:21;15.20;99.90
36002;DHT22;22070;50.922;5.430;2022-09-19T17:04:48;15.20;99.90
36002;DHT22;22070;50.922;5.430;2022-09-19T17:07:14;15.20;99.90
36002;DHT22;22070;50.922;5.430;2022-09-19T17:09:40;15.20;99.90
36002;DHT22;22070;50.922;5.430;2022-09-19T17:12:05;15.20;99.90
36002;DHT22;22070;50.922;5.430;2022-09-19T17:14:31;15.30;99.90
36002;DHT22;22070;50.922;5.430;2022-09-19T17:16:57;15.10;99.90
36002;DHT22;22070;50.922;5.430;2022-09-19T17:19:23;15.20;99.90
36002;DHT22;22070;50.922;5.430;2022-09-19T17:21:49;15.20;99.90
36002;DHT22;22070;50.922;5.430;2022-09-19T17:24:14;15.20;99.90
36002;DHT22;22070;50.922;5.430;2022-09-19T17:26:40;15.10;99.90
36002;DHT22;22070;50.922;5.430;2022-09-19T17:29:06;15.20;99.90
36002;DHT22;22070;50.922;5.430;2022-09-19T17:31:33;15.20;99.90
36002;DHT22;22070;50.922;5.430;2022-09-19T17:33:59;15.10;99.90
36002;DHT22;22070;50.922;5.430;2022-09-19T17:36:28;15.00;99.90
36002;DHT22;22070;50.922;5.430;2022-09-19T17:38:53;15.00;99.90
36002;DHT22;22070;50.922;5.430;2022-09-19T17:41:19;14.90;99.90
36002;DHT22;22070;50.922;5.430;2022-09-19T17:43:46;14.70;99.90
36002;DHT22;22070;50.922;5.430;2022-09-19T17:46:12;14.80;99.90
36002;DHT22;22070;50.922;5.430;2022-09-19T17:48:40;14.70;99.90
36002;DHT22;22070;50.922;5.430;2022-09-19T17:51:10;14.80;99.90
36002;DHT22;22070;50.922;5.430;2022-09-19T17:53:36;14.80;99.90
36002;DHT22;22070;50.922;5.430;2022-09-19T17:56:23;14.90;99.90
36002;DHT22;22070;50.922;5.430;2022-09-19T17:58:53;14.80;99.90
36002;DHT22;22070;50.922;5.430;2022-09-19T18:01:20;14.70;99.90
36002;DHT22;22070;50.922;5.430;2022-09-19T18:04:05;14.60;99.90
36002;DHT22;22070;50.922;5.430;2022-09-19T18:06:31;14.70;99.90
36002;DHT22;22070;50.922;5.430;2022-09-19T18:09:01;14.70;99.90
36002;DHT22;22070;50.922;5.430;2022-09-19T18:11:27;14.70;99.90
36002;DHT22;22070;50.922;5.430;2022-09-19T18:13:54;14.70;99.90
36002;DHT22;22070;50.922;5.430;2022-09-19T18:16:21;14.60;99.90
36002;DHT22;22070;50.922;5.430;2022-09-19T18:18:47;14.70;99.90
36002;DHT22;22070;50.922;5.430;2022-09-19T18:21:13;14.80;99.90
36002;DHT22;22070;50.922;5.430;2022-09-19T18:23:40;14.90;99.90
36002;DHT22;22070;50.922;5.430;2022-09-19T18:26:15;14.90;99.90
36002;DHT22;22070;50.922;5.430;2022-09-19T18:28:43;14.80;99.90
36002;DHT22;22070;50.922;5.430;2022-09-19T18:31:10;14.80;99.90
36002;DHT22;22070;50.922;5.430;2022-09-19T18:33:39;14.80;99.90
36002;DHT22;22070;50.922;5.430;2022-09-19T18:36:10;14.80;99.90
36002;DHT22;22070;50.922;5.430;2022-09-19T18:38:36;14.70;99.90
36002;DHT22;22070;50.922;5.430;2022-09-19T18:41:03;14.60;99.90
36002;DHT22;22070;50.922;5.430;2022-09-19T18:43:29;14.60;99.90
36002;DHT22;22070;50.922;5.430;2022-09-19T18:45:59;14.60;99.90
36002;DHT22;22070;50.922;5.430;2022-09-19T18:48:25;14.70;99.90
36002;DHT22;22070;50.922;5.430;2022-09-19T18:50:51;14.70;99.90
36002;DHT22;22070;50.922;5.430;2022-09-19T18:53:17;14.50;99.90
36002;DHT22;22070;50.922;5.430;2022-09-19T18:55:42;14.40;99.90
36002;DHT22;22070;50.922;5.430;2022-09-19T18:58:08;14.30;99.90
36002;DHT22;22070;50.922;5.430;2022-09-19T19:00:34;14.30;99.90
36002;DHT22;22070;50.922;5.430;2022-09-19T19:03:00;14.30;99.90
36002;DHT22;22070;50.922;5.430;2022-09-19T19:05:26;14.00;99.90
36002;DHT22;22070;50.922;5.430;2022-09-19T19:07:52;14.00;99.90
36002;DHT22;22070;50.922;5.430;2022-09-19T19:10:17;14.20;99.90
36002;DHT22;22070;50.922;5.430;2022-09-19T19:12:45;14.30;99.90
36002;DHT22;22070;50.922;5.430;2022-09-19T19:15:11;14.20;99.90
36002;DHT22;22070;50.922;5.430;2022-09-19T19:17:42;14.10;99.90
36002;DHT22;22070;50.922;5.430;2022-09-19T19:20:09;14.10;99.90
36002;DHT22;22070;50.922;5.430;2022-09-19T19:22:36;14.20;99.90